Time;durP1;ratioP1;P1;durP2;ratioP2;P2;SDS_P1;SDS_P2;PMS_P1;PMS_P2;Temp;Humidity;BMP_temperature;BMP_pressure;BME280_temperature;BME280_humidity;BME280_pressure;Samples;Min_cycle;Max_cycle;Signal;HPM_P1;HPM_P2
2022/10/04 00:00:58;;;;;;;;;;;19.70;69.90;;;;;;4511937;31;20408;-70
2022/10/04 00:03:29;;;;;;;;;;;19.70;69.90;;;;;;4513430;31;20078;-71
2022/10/04 00:05:56;;;;;;;;;;;19.70;69.90;;;;;;4512731;31;20029;-70
2022/10/04 00:08:45;;;;;;;;;;;19.60;69.90;;;;;;4512894;31;20106;-70
2022/10/04 00:11:32;;;;;;;;;;;19.60;69.90;;;;;;4508522;31;20039;-70
2022/10/04 00:13:59;;;;;;;;;;;19.60;69.80;;;;;;4496593;31;20082;-70
2022/10/04 00:16:43;;;;;;;;;;;19.60;69.90;;;;;;4490907;31;20037;-70
2022/10/04 00:19:15;;;;;;;;;;;19.60;69.80;;;;;;4497013;31;20590;-70
2022/10/04 00:21:53;;;;;;;;;;;19.60;69.90;;;;;;4508014;31;20051;-70
2022/10/04 00:24:23;;;;;;;;;;;19.60;69.90;;;;;;4513140;31;20036;-70
2022/10/04 00:26:49;;;;;;;;;;;19.60;69.90;;;;;;4512177;31;20048;-70
2022/10/04 01:06:06;;;;;;;;;;;19.60;69.80;;;;;;4426944;32;19974;-82
2022/10/04 01:08:39;;;;;;;;;;;19.50;69.80;;;;;;4428196;32;20423;-82
2022/10/04 01:11:15;;;;;;;;;;;19.60;69.80;;;;;;4428938;32;19989;-81
2022/10/04 01:13:46;;;;;;;;;;;19.50;69.80;;;;;;4432680;32;19987;-83
2022/10/04 01:16:23;;;;;;;;;;;19.50;69.80;;;;;;4432810;32;19983;-82
2022/10/04 01:18:49;;;;;;;;;;;19.50;69.80;;;;;;4419311;32;20014;-82
2022/10/04 01:21:18;;;;;;;;;;;19.50;69.80;;;;;;4433100;32;19982;-82
2022/10/04 01:23:43;;;;;;;;;;;19.50;69.70;;;;;;4432783;32;19971;-82
2022/10/04 01:26:28;;;;;;;;;;;19.50;69.80;;;;;;4431839;32;19993;-82
2022/10/04 01:29:12;;;;;;;;;;;19.50;69.80;;;;;;4432800;32;20105;-82
2022/10/04 01:31:40;;;;;;;;;;;19.50;69.80;;;;;;4432861;32;20459;-82
2022/10/04 01:34:06;;;;;;;;;;;19.50;69.70;;;;;;4432121;32;20329;-82
2022/10/04 01:36:33;;;;;;;;;;;19.50;69.70;;;;;;4432401;32;20121;-82
2022/10/04 01:38:58;;;;;;;;;;;19.50;69.70;;;;;;4432695;32;20092;-80
2022/10/04 01:41:43;;;;;;;;;;;19.50;69.80;;;;;;4431966;32;20097;-82
2022/10/04 01:44:10;;;;;;;;;;;19.50;69.80;;;;;;4432705;32;20006;-82
2022/10/04 01:46:38;;;;;;;;;;;19.50;69.70;;;;;;4432593;32;19986;-82
2022/10/04 01:49:07;;;;;;;;;;;19.50;69.70;;;;;;4432699;32;19985;-81
2022/10/04 01:51:35;;;;;;;;;;;19.50;69.70;;;;;;4432333;32;20121;-82
2022/10/04 01:54:06;;;;;;;;;;;19.50;69.70;;;;;;4432648;32;20441;-82
2022/10/04 01:56:51;;;;;;;;;;;19.50;69.70;;;;;;4432322;32;20007;-82
2022/10/04 01:59:23;;;;;;;;;;;19.40;69.60;;;;;;4432178;32;19974;-82
2022/10/04 02:01:51;;;;;;;;;;;19.40;69.60;;;;;;4432243;32;20508;-82
2022/10/04 02:04:19;;;;;;;;;;;19.40;69.70;;;;;;4432006;32;20021;-82
2022/10/04 02:06:47;;;;;;;;;;;19.40;69.60;;;;;;4432014;32;19986;-81
2022/10/04 02:09:18;;;;;;;;;;;19.40;69.60;;;;;;4432154;32;19993;-81
2022/10/04 02:11:47;;;;;;;;;;;19.40;69.70;;;;;;4431479;32;20104;-81
2022/10/04 02:14:14;;;;;;;;;;;19.40;69.70;;;;;;4431187;32;19975;-82
2022/10/04 02:16:41;;;;;;;;;;;19.40;69.60;;;;;;4431438;32;19967;-82
2022/10/04 02:19:08;;;;;;;;;;;19.40;69.60;;;;;;4430585;32;19991;-82
2022/10/04 02:21:35;;;;;;;;;;;19.40;69.60;;;;;;4430923;32;20400;-82
2022/10/04 02:24:02;;;;;;;;;;;19.40;69.60;;;;;;4417134;32;19982;-82
2022/10/04 02:26:28;;;;;;;;;;;19.40;69.60;;;;;;4431319;32;20484;-82
2022/10/04 02:28:54;;;;;;;;;;;19.40;69.60;;;;;;4431389;32;20557;-82
2022/10/04 02:34:05;;;;;;;;;;;19.40;69.60;;;;;;4431065;32;20097;-82
2022/10/04 02:36:32;;;;;;;;;;;19.40;69.60;;;;;;4430967;32;19982;-81
2022/10/04 02:39:01;;;;;;;;;;;19.40;69.60;;;;;;4431486;32;19978;-81
2022/10/04 02:41:31;;;;;;;;;;;19.40;69.60;;;;;;4431015;32;19974;-82
2022/10/04 02:44:01;;;;;;;;;;;19.40;69.60;;;;;;4430929;32;20061;-82
2022/10/04 02:46:29;;;;;;;;;;;19.40;69.60;;;;;;4430948;32;19979;-82
2022/10/04 02:48:57;;;;;;;;;;;19.40;69.60;;;;;;4431293;32;20348;-82
2022/10/04 02:51:35;;;;;;;;;;;19.40;69.60;;;;;;4430724;32;20049;-82
2022/10/04 02:54:06;;;;;;;;;;;19.40;69.60;;;;;;4430783;32;19975;-82
2022/10/04 02:56:32;;;;;;;;;;;19.40;69.60;;;;;;4430675;32;19987;-82
2022/10/04 02:59:02;;;;;;;;;;;19.40;69.60;;;;;;4430776;32;20050;-82
2022/10/04 03:01:38;;;;;;;;;;;19.40;69.60;;;;;;4430766;32;20044;-82
2022/10/04 03:04:04;;;;;;;;;;;19.40;69.60;;;;;;4430522;32;19983;-82
2022/10/04 03:06:31;;;;;;;;;;;19.30;69.50;;;;;;4417085;32;19985;-82
2022/10/04 03:09:00;;;;;;;;;;;19.30;69.50;;;;;;4430401;32;20041;-82
2022/10/04 03:11:29;;;;;;;;;;;19.30;69.50;;;;;;4430741;32;19986;-82
2022/10/04 03:13:56;;;;;;;;;;;19.30;69.50;;;;;;4430491;32;20108;-82
2022/10/04 03:16:23;;;;;;;;;;;19.30;69.50;;;;;;4430747;32;19971;-82
2022/10/04 03:18:49;;;;;;;;;;;19.30;69.50;;;;;;4430391;32;20436;-82
2022/10/04 03:21:16;;;;;;;;;;;19.30;69.50;;;;;;4430510;32;19997;-82
2022/10/04 03:23:43;;;;;;;;;;;19.30;69.50;;;;;;4430551;32;20049;-82
2022/10/04 03:26:23;;;;;;;;;;;19.30;69.50;;;;;;4430624;32;20405;-82
2022/10/04 03:28:48;;;;;;;;;;;19.30;69.40;;;;;;4430677;32;19987;-82
2022/10/04 03:31:14;;;;;;;;;;;19.30;69.50;;;;;;4430139;32;19963;-82
2022/10/04 03:33:41;;;;;;;;;;;19.40;69.50;;;;;;4430154;32;20320;-82
2022/10/04 03:36:11;;;;;;;;;;;19.30;69.40;;;;;;4430407;32;19971;-82
2022/10/04 03:38:39;;;;;;;;;;;19.30;69.50;;;;;;4430765;32;20034;-81
2022/10/04 03:41:05;;;;;;;;;;;19.30;69.50;;;;;;4430221;32;20329;-81
2022/10/04 03:43:33;;;;;;;;;;;19.30;69.40;;;;;;4430371;32;20336;-82
2022/10/04 03:45:59;;;;;;;;;;;19.30;69.40;;;;;;4430162;32;20097;-81
2022/10/04 03:48:34;;;;;;;;;;;19.30;69.50;;;;;;4430362;32;20333;-82
2022/10/04 03:51:01;;;;;;;;;;;19.30;69.40;;;;;;4416291;32;20100;-82
2022/10/04 03:53:34;;;;;;;;;;;19.30;69.50;;;;;;4430570;32;20401;-82
2022/10/04 03:56:01;;;;;;;;;;;19.30;69.40;;;;;;4430143;32;20409;-82
2022/10/04 03:58:28;;;;;;;;;;;19.30;69.40;;;;;;4429973;32;19983;-82
2022/10/04 04:01:03;;;;;;;;;;;19.30;69.40;;;;;;4401137;32;19975;-81
2022/10/04 04:03:29;;;;;;;;;;;19.30;69.40;;;;;;4428792;32;20498;-82
2022/10/04 04:05:58;;;;;;;;;;;19.30;69.40;;;;;;4430058;32;20495;-82
2022/10/04 04:08:28;;;;;;;;;;;19.30;69.50;;;;;;4429121;32;19994;-82
2022/10/04 04:10:57;;;;;;;;;;;19.30;69.40;;;;;;4428802;32;19993;-82
2022/10/04 04:13:34;;;;;;;;;;;19.30;69.40;;;;;;4429330;32;19989;-82
2022/10/04 04:16:01;;;;;;;;;;;19.30;69.40;;;;;;4429306;32;19978;-82
2022/10/04 04:18:29;;;;;;;;;;;19.30;69.40;;;;;;4429363;32;20381;-82
2022/10/04 04:20:58;;;;;;;;;;;19.30;69.40;;;;;;4427380;32;20057;-82
2022/10/04 04:23:35;;;;;;;;;;;19.20;69.40;;;;;;4429062;32;19985;-82
2022/10/04 04:26:21;;;;;;;;;;;19.20;69.40;;;;;;4427781;32;19984;-82
2022/10/04 04:28:49;;;;;;;;;;;19.20;69.40;;;;;;4423245;32;19989;-82
2022/10/04 04:31:18;;;;;;;;;;;19.30;69.40;;;;;;4429572;32;20007;-81
2022/10/04 04:33:47;;;;;;;;;;;19.20;69.30;;;;;;4429556;32;20456;-82
2022/10/04 04:36:13;;;;;;;;;;;19.20;69.40;;;;;;4429713;32;20471;-81
2022/10/04 04:39:33;;;;;;;;;;;19.20;69.40;;;;;;4429989;32;20474;-82
2022/10/04 04:41:26;;;;;;;;;;;19.20;69.40;;;;;;4429510;32;20381;-81
2022/10/04 04:43:51;;;;;;;;;;;19.20;69.30;;;;;;4429873;32;20097;-82
2022/10/04 04:46:17;;;;;;;;;;;19.20;69.40;;;;;;4415790;32;20068;-81
2022/10/04 04:48:44;;;;;;;;;;;19.20;69.30;;;;;;4432426;32;20091;-82
2022/10/04 04:51:20;;;;;;;;;;;19.20;69.30;;;;;;4432608;32;20019;-82
2022/10/04 04:53:47;;;;;;;;;;;19.20;69.30;;;;;;4432865;32;19975;-82
2022/10/04 04:56:17;;;;;;;;;;;19.20;69.30;;;;;;4418080;32;20493;-82
2022/10/04 04:58:45;;;;;;;;;;;19.20;69.30;;;;;;4432001;32;20033;-82
2022/10/04 05:01:22;;;;;;;;;;;19.20;69.30;;;;;;4431625;32;19986;-82
2022/10/04 05:04:01;;;;;;;;;;;19.20;70.20;;;;;;4429609;32;20430;-81
2022/10/04 05:06:27;;;;;;;;;;;19.20;69.30;;;;;;4430917;32;20535;-82
2022/10/04 05:08:53;;;;;;;;;;;19.20;69.30;;;;;;4431314;32;20053;-82
2022/10/04 05:11:20;;;;;;;;;;;19.20;69.20;;;;;;4431173;32;20035;-82
2022/10/04 05:13:50;;;;;;;;;;;19.20;69.30;;;;;;4431335;32;20121;-82
2022/10/04 05:16:49;;;;;;;;;;;19.20;69.20;;;;;;4426770;32;19967;-82
2022/10/04 05:19:20;;;;;;;;;;;19.20;69.30;;;;;;4406031;32;20158;-81
2022/10/04 05:21:47;;;;;;;;;;;19.20;69.20;;;;;;4432112;32;19979;-82
2022/10/04 05:24:24;;;;;;;;;;;19.20;69.30;;;;;;4432243;32;19982;-81
2022/10/04 05:26:52;;;;;;;;;;;19.20;69.20;;;;;;4432209;32;20001;-82
2022/10/04 05:29:18;;;;;;;;;;;19.10;69.20;;;;;;4432038;32;20081;-81
2022/10/04 05:31:48;;;;;;;;;;;19.20;69.20;;;;;;4432435;32;20049;-81
2022/10/04 05:34:17;;;;;;;;;;;19.10;69.20;;;;;;4431798;32;19986;-81
2022/10/04 05:36:57;;;;;;;;;;;19.10;69.20;;;;;;4418426;32;20009;-82
2022/10/04 05:39:35;;;;;;;;;;;19.10;69.20;;;;;;4431905;32;20035;-82
2022/10/04 05:42:06;;;;;;;;;;;19.20;69.20;;;;;;4431883;32;19975;-81
2022/10/04 05:44:43;;;;;;;;;;;19.10;69.10;;;;;;4431781;32;19975;-82
2022/10/04 05:47:11;;;;;;;;;;;19.10;69.10;;;;;;4432130;32;20056;-81
2022/10/04 05:49:42;;;;;;;;;;;19.10;69.10;;;;;;4431905;32;19997;-82
2022/10/04 05:52:15;;;;;;;;;;;19.10;70.00;;;;;;4432273;32;20110;-81
2022/10/04 05:54:41;;;;;;;;;;;19.10;69.10;;;;;;4431830;32;20168;-82
2022/10/04 05:57:28;;;;;;;;;;;19.10;69.10;;;;;;4432003;32;20077;-81
2022/10/04 06:00:07;;;;;;;;;;;19.10;69.10;;;;;;4430779;32;19983;-82
2022/10/04 06:02:40;;;;;;;;;;;19.10;69.00;;;;;;4431742;32;19983;-82
2022/10/04 06:05:08;;;;;;;;;;;19.10;69.10;;;;;;4417596;32;20397;-82
2022/10/04 06:07:44;;;;;;;;;;;19.10;69.00;;;;;;4431782;32;19989;-82
2022/10/04 06:10:10;;;;;;;;;;;19.10;69.10;;;;;;4431575;32;20460;-82
2022/10/04 06:12:40;;;;;;;;;;;19.10;69.00;;;;;;4431793;32;19982;-82
2022/10/04 06:15:07;;;;;;;;;;;19.10;69.10;;;;;;4431429;32;20245;-82
2022/10/04 06:17:47;;;;;;;;;;;19.10;69.00;;;;;;4417894;32;20175;-81
2022/10/04 06:20:22;;;;;;;;;;;19.10;69.00;;;;;;4431322;32;19978;-82
2022/10/04 06:22:52;;;;;;;;;;;19.10;69.00;;;;;;4416907;32;19975;-82
2022/10/04 06:25:27;;;;;;;;;;;19.10;69.00;;;;;;4430388;32;20103;-82
2022/10/04 06:27:53;;;;;;;;;;;19.00;68.90;;;;;;4429867;32;19978;-82
2022/10/04 06:30:19;;;;;;;;;;;19.00;68.90;;;;;;4430552;32;19986;-81
2022/10/04 06:32:45;;;;;;;;;;;19.10;68.90;;;;;;4430683;32;20007;-82
2022/10/04 06:35:20;;;;;;;;;;;19.00;68.90;;;;;;4431440;32;19981;-82
2022/10/04 06:37:52;;;;;;;;;;;19.00;68.90;;;;;;4431097;32;20503;-81
2022/10/04 06:40:19;;;;;;;;;;;19.00;68.90;;;;;;4431346;32;19998;-82
2022/10/04 06:42:55;;;;;;;;;;;19.00;68.80;;;;;;4430803;32;20442;-81
2022/10/04 06:45:47;;;;;;;;;;;19.00;68.90;;;;;;4429871;32;19987;-80
2022/10/04 06:48:21;;;;;;;;;;;19.00;68.90;;;;;;4428195;32;20332;-80
2022/10/04 06:50:58;;;;;;;;;;;19.00;68.40;;;;;;4430671;32;19986;-83
2022/10/04 06:53:44;;;;;;;;;;;19.00;68.00;;;;;;4430973;32;20316;-83
2022/10/04 06:56:13;;;;;;;;;;;19.00;67.90;;;;;;4430837;32;20041;-82
2022/10/04 06:58:56;;;;;;;;;;;19.00;68.20;;;;;;4431121;32;19974;-83
2022/10/04 07:01:27;;;;;;;;;;;19.00;68.40;;;;;;4430858;32;20065;-83
2022/10/04 07:03:53;;;;;;;;;;;19.00;69.40;;;;;;4430560;32;20385;-82
2022/10/04 07:06:23;;;;;;;;;;;19.00;68.60;;;;;;4430666;32;19959;-83
2022/10/04 07:08:49;;;;;;;;;;;19.00;68.60;;;;;;4430937;32;19983;-82
2022/10/04 07:11:18;;;;;;;;;;;19.00;68.80;;;;;;4430297;32;19987;-82
2022/10/04 07:13:47;;;;;;;;;;;19.00;68.90;;;;;;4430546;32;19999;-81
2022/10/04 07:16:31;;;;;;;;;;;19.00;68.80;;;;;;4430591;32;19989;-80
2022/10/04 07:19:16;;;;;;;;;;;19.00;68.80;;;;;;4422709;32;19979;-80
2022/10/04 07:21:52;;;;;;;;;;;19.00;68.90;;;;;;4416650;32;20023;-80
2022/10/04 07:24:20;;;;;;;;;;;19.00;68.80;;;;;;4430782;32;19982;-80
2022/10/04 07:26:47;;;;;;;;;;;19.00;68.90;;;;;;4430333;32;19975;-80
2022/10/04 07:29:22;;;;;;;;;;;19.00;68.90;;;;;;4430202;32;19990;-81
2022/10/04 07:31:50;;;;;;;;;;;19.00;69.00;;;;;;4428326;32;20034;-79
2022/10/04 07:34:19;;;;;;;;;;;19.10;69.00;;;;;;4428769;32;19978;-78
2022/10/04 07:36:47;;;;;;;;;;;19.10;69.00;;;;;;4429877;32;19989;-80
2022/10/04 07:39:34;;;;;;;;;;;19.10;69.00;;;;;;4403660;32;20333;-79
2022/10/04 07:42:12;;;;;;;;;;;19.10;68.90;;;;;;4413790;32;20017;-80
2022/10/04 07:44:39;;;;;;;;;;;19.10;69.00;;;;;;4430016;32;19978;-79
2022/10/04 07:47:13;;;;;;;;;;;19.10;68.90;;;;;;4423004;32;20037;-78
2022/10/04 07:49:39;;;;;;;;;;;19.10;68.90;;;;;;4430163;32;19967;-79
2022/10/04 07:52:28;;;;;;;;;;;19.10;68.90;;;;;;4430113;32;19994;-80
2022/10/04 07:55:13;;;;;;;;;;;19.10;68.90;;;;;;4406395;32;19983;-82
2022/10/04 07:57:43;;;;;;;;;;;19.10;69.00;;;;;;4428999;32;20104;-81
2022/10/04 08:00:15;;;;;;;;;;;19.10;69.00;;;;;;4429470;32;19994;-81
2022/10/04 08:02:41;;;;;;;;;;;19.10;69.10;;;;;;4429523;32;19990;-81
2022/10/04 08:05:07;;;;;;;;;;;19.10;69.00;;;;;;4429266;32;19995;-81
2022/10/04 08:07:53;;;;;;;;;;;19.10;69.00;;;;;;4429766;32;20419;-81
2022/10/04 08:10:29;;;;;;;;;;;19.10;69.10;;;;;;4429520;32;19989;-81
2022/10/04 08:13:04;;;;;;;;;;;19.10;69.00;;;;;;4429535;32;20057;-82
2022/10/04 08:15:35;;;;;;;;;;;19.10;69.00;;;;;;4403081;32;20009;-83
2022/10/04 08:18:04;;;;;;;;;;;19.10;69.10;;;;;;4429344;32;19993;-81
2022/10/04 08:20:36;;;;;;;;;;;19.00;69.00;;;;;;4429641;32;20057;-83
2022/10/04 08:23:05;;;;;;;;;;;19.00;69.00;;;;;;4429077;32;20336;-82
2022/10/04 08:25:49;;;;;;;;;;;19.10;69.10;;;;;;4420387;32;20034;-81
2022/10/04 08:31:23;;;;;;;;;;;19.10;69.20;;;;;;4419105;32;20309;-82
2022/10/04 08:34:08;;;;;;;;;;;19.10;69.20;;;;;;4429775;32;20201;-80
2022/10/04 08:36:36;;;;;;;;;;;19.10;69.30;;;;;;4420645;32;20384;-79
2022/10/04 08:39:05;;;;;;;;;;;19.10;69.20;;;;;;4429887;32;20061;-81
2022/10/04 08:41:50;;;;;;;;;;;19.10;68.90;;;;;;4429956;32;20361;-82
2022/10/04 08:44:22;;;;;;;;;;;19.20;68.90;;;;;;4429519;32;19975;-82
2022/10/04 08:47:06;;;;;;;;;;;19.20;68.70;;;;;;4416091;32;19971;-83
2022/10/04 08:49:41;;;;;;;;;;;19.20;68.60;;;;;;4429487;32;19974;-82
2022/10/04 08:52:18;;;;;;;;;;;19.20;68.50;;;;;;4429667;32;19982;-83
2022/10/04 08:54:56;;;;;;;;;;;19.20;68.60;;;;;;4429761;32;19982;-82
2022/10/04 08:57:42;;;;;;;;;;;19.20;68.60;;;;;;4429822;32;19985;-83
2022/10/04 09:00:12;;;;;;;;;;;19.20;68.50;;;;;;4415744;32;19986;-81
2022/10/04 09:02:57;;;;;;;;;;;19.30;68.40;;;;;;4429490;32;20328;-81
2022/10/04 09:05:42;;;;;;;;;;;19.30;68.50;;;;;;4429769;32;19994;-82
2022/10/04 09:08:21;;;;;;;;;;;19.30;68.50;;;;;;4429710;32;20360;-81
2022/10/04 09:10:56;;;;;;;;;;;19.30;68.60;;;;;;4429993;32;20423;-83
2022/10/04 09:13:25;;;;;;;;;;;19.30;68.60;;;;;;4428353;32;19999;-82
2022/10/04 09:16:02;;;;;;;;;;;19.30;68.50;;;;;;4415038;32;19974;-82
2022/10/04 09:18:47;;;;;;;;;;;19.30;68.60;;;;;;4427641;32;19993;-77
2022/10/04 09:21:25;;;;;;;;;;;19.30;68.60;;;;;;4429212;32;19979;-83
2022/10/04 09:24:09;;;;;;;;;;;19.30;68.60;;;;;;4429260;32;20036;-78
2022/10/04 09:26:42;;;;;;;;;;;19.40;68.30;;;;;;4429438;32;20479;-82
2022/10/04 09:29:27;;;;;;;;;;;19.40;68.30;;;;;;4428787;32;19985;-81
2022/10/04 09:32:01;;;;;;;;;;;19.40;68.20;;;;;;4428149;32;20000;-80
2022/10/04 09:34:37;;;;;;;;;;;19.40;68.20;;;;;;4430605;32;20006;-81
2022/10/04 09:37:09;;;;;;;;;;;19.40;68.20;;;;;;4431699;32;19970;-80
2022/10/04 09:39:54;;;;;;;;;;;19.40;68.20;;;;;;4431449;32;19987;-83
2022/10/04 09:42:21;;;;;;;;;;;19.40;68.20;;;;;;4431361;32;20693;-81
2022/10/04 09:44:56;;;;;;;;;;;19.50;68.10;;;;;;4418941;32;19991;-82
2022/10/04 09:47:37;;;;;;;;;;;19.50;68.10;;;;;;4431306;32;19967;-82
2022/10/04 09:50:25;;;;;;;;;;;19.50;68.10;;;;;;4425233;32;19989;-82
2022/10/04 09:53:01;;;;;;;;;;;19.50;68.00;;;;;;4427534;32;20057;-81
2022/10/04 09:55:45;;;;;;;;;;;19.50;67.90;;;;;;4417654;32;19971;-81
2022/10/04 09:58:17;;;;;;;;;;;19.50;67.80;;;;;;4429155;32;20059;-80
2022/10/04 10:00:55;;;;;;;;;;;19.60;67.80;;;;;;4431277;32;20017;-80
2022/10/04 10:03:40;;;;;;;;;;;19.50;67.70;;;;;;4418084;32;20460;-81
2022/10/04 10:06:09;;;;;;;;;;;19.60;67.90;;;;;;4430857;32;20449;-81
2022/10/04 10:08:43;;;;;;;;;;;19.60;67.80;;;;;;4430930;32;19975;-81
2022/10/04 10:14:07;;;;;;;;;;;19.60;67.70;;;;;;4430234;32;20314;-82
2022/10/04 10:16:40;;;;;;;;;;;19.60;67.50;;;;;;4430740;32;19994;-80
2022/10/04 10:19:06;;;;;;;;;;;19.60;67.60;;;;;;4431345;32;19986;-78
2022/10/04 10:21:38;;;;;;;;;;;19.60;67.50;;;;;;4431269;32;19959;-80
2022/10/04 10:24:25;;;;;;;;;;;19.60;67.60;;;;;;4425748;32;19978;-80
2022/10/04 10:26:57;;;;;;;;;;;19.60;67.60;;;;;;4430781;32;19994;-79
2022/10/04 10:29:41;;;;;;;;;;;19.60;67.50;;;;;;4430625;32;19979;-79
2022/10/04 10:32:08;;;;;;;;;;;19.60;67.30;;;;;;4430876;32;19990;-79
2022/10/04 10:34:54;;;;;;;;;;;19.60;67.30;;;;;;4430586;32;19990;-80
2022/10/04 10:37:39;;;;;;;;;;;19.60;66.90;;;;;;4425333;32;20428;-79
2022/10/04 10:40:18;;;;;;;;;;;19.70;67.00;;;;;;4431198;32;19978;-81
2022/10/04 10:42:48;;;;;;;;;;;19.70;67.30;;;;;;4430510;32;19981;-82
2022/10/04 10:45:20;;;;;;;;;;;19.70;66.90;;;;;;4429966;32;19989;-78
2022/10/04 10:47:51;;;;;;;;;;;19.70;67.10;;;;;;4430166;32;20109;-78
2022/10/04 10:50:29;;;;;;;;;;;19.70;67.20;;;;;;4430671;32;20121;-78
2022/10/04 10:53:19;;;;;;;;;;;19.70;67.30;;;;;;4430761;32;20058;-77
2022/10/04 10:56:03;;;;;;;;;;;19.70;67.30;;;;;;4410861;32;20409;-75
2022/10/04 10:58:47;;;;;;;;;;;19.70;67.10;;;;;;4428151;32;19994;-78
2022/10/04 11:01:37;;;;;;;;;;;19.70;67.00;;;;;;4430767;32;19982;-78
2022/10/04 11:04:11;;;;;;;;;;;19.70;66.90;;;;;;4423088;32;20420;-77
2022/10/04 11:06:55;;;;;;;;;;;19.70;66.50;;;;;;4430734;32;19990;-79
2022/10/04 11:09:21;;;;;;;;;;;19.70;66.70;;;;;;4424410;32;20444;-79
2022/10/04 11:11:47;;;;;;;;;;;19.70;66.40;;;;;;4430618;32;20100;-82
2022/10/04 11:14:18;;;;;;;;;;;19.70;66.80;;;;;;4430923;32;19974;-79
2022/10/04 11:16:56;;;;;;;;;;;19.70;66.60;;;;;;4430341;32;20030;-79
2022/10/04 11:19:22;;;;;;;;;;;19.70;66.50;;;;;;4429984;32;19975;-81
2022/10/04 11:21:50;;;;;;;;;;;19.70;66.10;;;;;;4429776;32;20026;-79
2022/10/04 11:24:28;;;;;;;;;;;19.70;66.20;;;;;;4430246;32;19989;-79
2022/10/04 11:27:00;;;;;;;;;;;19.70;66.10;;;;;;4415957;32;19990;-79
2022/10/04 11:29:54;;;;;;;;;;;19.70;66.10;;;;;;4429949;32;20146;-79
2022/10/04 11:32:44;;;;;;;;;;;19.70;66.00;;;;;;4428496;32;20013;-80
2022/10/04 11:35:36;;;;;;;;;;;19.70;66.20;;;;;;4430334;32;19971;-80
2022/10/04 11:38:20;;;;;;;;;;;19.70;66.40;;;;;;4411936;32;19971;-79
2022/10/04 11:41:02;;;;;;;;;;;19.70;66.50;;;;;;4425994;32;19985;-79
2022/10/04 11:43:49;;;;;;;;;;;19.70;66.40;;;;;;4429889;32;19978;-78
2022/10/04 11:46:17;;;;;;;;;;;19.70;66.10;;;;;;4427729;32;20348;-78
2022/10/04 11:49:21;;;;;;;;;;;19.70;66.40;;;;;;4429900;32;20069;-80
2022/10/04 11:51:47;;;;;;;;;;;19.70;66.20;;;;;;4397404;32;19975;-79
2022/10/04 11:54:32;;;;;;;;;;;19.70;65.90;;;;;;4397441;32;19979;-79
2022/10/04 11:57:17;;;;;;;;;;;19.70;65.90;;;;;;4415832;32;19975;-79
2022/10/04 11:59:46;;;;;;;;;;;19.70;66.00;;;;;;4429650;32;20175;-78
2022/10/04 12:02:21;;;;;;;;;;;19.80;66.10;;;;;;4427981;32;20120;-83
2022/10/04 12:05:06;;;;;;;;;;;19.70;66.20;;;;;;4429514;32;19982;-80
2022/10/04 12:07:49;;;;;;;;;;;19.70;66.20;;;;;;4430117;32;20054;-80
2022/10/04 12:10:23;;;;;;;;;;;19.70;66.30;;;;;;4429872;32;20100;-77
2022/10/04 12:12:51;;;;;;;;;;;19.70;66.40;;;;;;4430139;32;19991;-76
2022/10/04 12:15:37;;;;;;;;;;;19.70;66.40;;;;;;4429859;32;20061;-76
2022/10/04 12:18:13;;;;;;;;;;;19.80;66.50;;;;;;4429809;32;20323;-75
2022/10/04 12:20:43;;;;;;;;;;;19.80;66.60;;;;;;4429547;32;19971;-78
2022/10/04 12:23:37;;;;;;;;;;;19.80;66.50;;;;;;4429332;32;19970;-76
2022/10/04 12:26:06;;;;;;;;;;;19.80;66.50;;;;;;4427610;32;19983;-78
2022/10/04 12:28:38;;;;;;;;;;;19.80;66.30;;;;;;4429170;32;20014;-77
2022/10/04 12:31:07;;;;;;;;;;;19.80;67.10;;;;;;4429678;32;19986;-79
2022/10/04 12:33:52;;;;;;;;;;;19.80;66.30;;;;;;4429733;32;20054;-78
2022/10/04 12:36:37;;;;;;;;;;;19.80;66.40;;;;;;4432082;32;19975;-81
2022/10/04 12:39:04;;;;;;;;;;;19.80;65.90;;;;;;4432904;32;20109;-81
2022/10/04 12:41:33;;;;;;;;;;;19.80;66.00;;;;;;4429815;32;20096;-79
2022/10/04 12:44:06;;;;;;;;;;;19.80;66.20;;;;;;4429598;32;20144;-82
2022/10/04 12:46:32;;;;;;;;;;;19.80;65.90;;;;;;4429035;32;19990;-81
2022/10/04 12:49:06;;;;;;;;;;;19.80;65.60;;;;;;4429194;32;20034;-80
2022/10/04 12:52:01;;;;;;;;;;;19.80;65.40;;;;;;4427308;32;20567;-78
2022/10/04 12:54:50;;;;;;;;;;;19.90;65.70;;;;;;4417738;32;19987;-79
2022/10/04 12:57:26;;;;;;;;;;;19.90;65.70;;;;;;4403158;32;20447;-79
2022/10/04 13:00:01;;;;;;;;;;;19.90;65.70;;;;;;4429006;32;20001;-79
2022/10/04 13:02:36;;;;;;;;;;;19.90;65.70;;;;;;4428892;32;20039;-79
2022/10/04 13:05:08;;;;;;;;;;;19.90;67.00;;;;;;4428875;32;20002;-79
2022/10/04 13:07:34;;;;;;;;;;;19.90;66.30;;;;;;4426043;32;20093;-79
2022/10/04 13:10:20;;;;;;;;;;;19.90;66.20;;;;;;4430266;32;19994;-79
2022/10/04 13:12:59;;;;;;;;;;;19.90;66.30;;;;;;4430922;32;19995;-79
2022/10/04 13:15:34;;;;;;;;;;;19.90;66.30;;;;;;4430931;32;19994;-79
2022/10/04 13:17:59;;;;;;;;;;;19.90;66.30;;;;;;4431657;32;20316;-79
2022/10/04 13:20:32;;;;;;;;;;;19.90;66.30;;;;;;4431647;32;20005;-80
2022/10/04 13:23:01;;;;;;;;;;;19.90;66.30;;;;;;4430451;32;20060;-81
2022/10/04 13:25:45;;;;;;;;;;;19.90;66.40;;;;;;4430970;32;20046;-81
2022/10/04 13:28:11;;;;;;;;;;;19.90;66.40;;;;;;4431372;32;20043;-78
2022/10/04 13:30:56;;;;;;;;;;;19.90;66.40;;;;;;4429423;32;19982;-81
2022/10/04 13:33:27;;;;;;;;;;;19.90;66.50;;;;;;4429362;32;20054;-80
2022/10/04 13:35:53;;;;;;;;;;;19.90;66.50;;;;;;4430995;32;19995;-80
2022/10/04 13:38:28;;;;;;;;;;;20.00;66.40;;;;;;4431200;32;20313;-82
2022/10/04 13:40:54;;;;;;;;;;;19.90;66.50;;;;;;4431354;32;20057;-79
2022/10/04 13:43:24;;;;;;;;;;;19.90;66.50;;;;;;4431175;32;20113;-78
2022/10/04 13:45:50;;;;;;;;;;;19.90;66.30;;;;;;4431200;32;20032;-79
2022/10/04 13:48:40;;;;;;;;;;;19.90;66.40;;;;;;4431143;32;20097;-79
2022/10/04 13:51:17;;;;;;;;;;;19.90;66.40;;;;;;4401240;32;19994;-79
2022/10/04 13:56:52;;;;;;;;;;;19.90;66.30;;;;;;4431041;32;19983;-78
2022/10/04 13:59:22;;;;;;;;;;;19.90;66.30;;;;;;4412543;32;28872;-79
2022/10/04 14:01:53;;;;;;;;;;;19.90;66.30;;;;;;4427824;32;20130;-80
2022/10/04 14:04:42;;;;;;;;;;;19.90;66.20;;;;;;4429452;32;19987;-80
2022/10/04 14:07:14;;;;;;;;;;;19.90;66.00;;;;;;4426689;32;19998;-83
2022/10/04 14:10:01;;;;;;;;;;;19.90;66.00;;;;;;4430266;32;19994;-83
2022/10/04 14:12:27;;;;;;;;;;;19.90;65.80;;;;;;4428498;32;19978;-84
2022/10/04 14:14:59;;;;;;;;;;;19.90;65.80;;;;;;4429972;32;20308;-81
2022/10/04 14:17:45;;;;;;;;;;;19.90;65.60;;;;;;4428488;32;20349;-81
2022/10/04 14:20:30;;;;;;;;;;;19.90;65.50;;;;;;4429190;32;20403;-80
2022/10/04 14:23:10;;;;;;;;;;;19.90;65.40;;;;;;4429849;32;19991;-81
2022/10/04 14:25:37;;;;;;;;;;;19.80;65.10;;;;;;4420079;32;20516;-80
2022/10/04 14:28:21;;;;;;;;;;;19.80;65.10;;;;;;4430182;32;20476;-81
2022/10/04 14:31:06;;;;;;;;;;;19.80;65.10;;;;;;4419523;32;20058;-80
2022/10/04 14:33:58;;;;;;;;;;;19.80;65.00;;;;;;4429581;32;20089;-80
2022/10/04 14:36:51;;;;;;;;;;;19.80;65.00;;;;;;4429903;32;20010;-81
2022/10/04 14:39:29;;;;;;;;;;;19.80;65.00;;;;;;4411661;32;20113;-82
2022/10/04 14:42:09;;;;;;;;;;;19.80;65.00;;;;;;4429740;32;19982;-80
2022/10/04 14:44:41;;;;;;;;;;;19.80;64.80;;;;;;4429761;32;19970;-83
2022/10/04 14:47:07;;;;;;;;;;;19.80;64.80;;;;;;4430379;32;19983;-82
2022/10/04 14:49:39;;;;;;;;;;;19.80;64.80;;;;;;4429809;32;19971;-80
2022/10/04 14:52:07;;;;;;;;;;;19.80;64.80;;;;;;4430266;32;19990;-81
2022/10/04 14:54:39;;;;;;;;;;;19.80;65.00;;;;;;4429793;32;19998;-80
2022/10/04 14:57:23;;;;;;;;;;;19.80;65.00;;;;;;4407061;32;19974;-78
2022/10/04 15:00:18;;;;;;;;;;;19.80;65.10;;;;;;4429603;32;20087;-78
2022/10/04 15:02:53;;;;;;;;;;;19.80;65.10;;;;;;4413006;32;20015;-77
2022/10/04 15:05:19;;;;;;;;;;;19.80;65.00;;;;;;4428968;32;20570;-77
2022/10/04 15:07:48;;;;;;;;;;;19.80;64.80;;;;;;4429311;32;20441;-77
2022/10/04 15:10:31;;;;;;;;;;;19.80;65.00;;;;;;4429130;32;20015;-78
2022/10/04 15:13:16;;;;;;;;;;;19.80;64.90;;;;;;4428604;32;19995;-78
2022/10/04 15:16:03;;;;;;;;;;;19.80;65.00;;;;;;4429252;32;20089;-78
2022/10/04 15:18:37;;;;;;;;;;;19.80;65.10;;;;;;4429309;32;20109;-79
2022/10/04 15:21:09;;;;;;;;;;;19.70;64.90;;;;;;4429712;32;19983;-78
2022/10/04 15:23:41;;;;;;;;;;;19.70;65.00;;;;;;4429492;32;20058;-78
2022/10/04 15:26:07;;;;;;;;;;;19.70;64.70;;;;;;4429690;32;19997;-81
2022/10/04 15:28:45;;;;;;;;;;;19.70;64.50;;;;;;4430027;32;19978;-82
2022/10/04 15:31:15;;;;;;;;;;;19.70;64.70;;;;;;4416042;32;20020;-81
2022/10/04 15:33:59;;;;;;;;;;;19.70;64.70;;;;;;4429732;32;20037;-83
2022/10/04 15:36:40;;;;;;;;;;;19.70;64.60;;;;;;4430444;32;19974;-82
2022/10/04 15:39:15;;;;;;;;;;;19.70;64.60;;;;;;4428943;32;20037;-81
2022/10/04 15:41:47;;;;;;;;;;;19.70;64.80;;;;;;4430054;32;19971;-82
2022/10/04 15:44:26;;;;;;;;;;;19.70;65.00;;;;;;4429550;32;19989;-80